Flight Track Log - Related Links

Times and Time Zones

All times are in EDT time to prevent confusion due to time zone crossing. See the AAY855 flight status page for this flight to view local times or setup timezone preferences in your user account.


Time Position Orientation Groundspeed Altitude Reporting Facility
EDT Latitude Longitude Course Direction KTS MPH feet Rate Location/Type
Wed 06:05:12 PM 41.6989 -86.3553 216° Southwest 168 193 2,800  Level Chicago Center
Wed 06:06:14 PM 41.6475 -86.4058 216° Southwest 222 255 5,000 2,226 Climbing Chicago Center
Wed 06:07:16 PM 41.5894 -86.3372 139° Southeast 285 328 7,400 2,226 Climbing Chicago Center
Wed 06:08:18 PM 41.5461 -86.2367 120° Southeast 308 354 9,600 1,645 Climbing Chicago Center
Wed 06:09:20 PM 41.4856 -86.1400 130° Southeast 331 381 10,800 1,210 Climbing Chicago Center
Wed 06:10:22 PM 41.4047 -86.0500 140° Southeast 370 426 12,100 1,920 Climbing Chicago Center
Wed 06:11:25 PM 41.3000 -85.9292 139° Southeast 406 467 14,800 2,496 Climbing Chicago Center
Wed 06:12:27 PM 41.2089 -85.8239 139° Southeast 427 491 17,300 2,419 Climbing Chicago Center
Wed 06:13:29 PM 41.1194 -85.7178 138° Southeast 435 501 19,800 2,081 Climbing Chicago Center
Wed 06:14:31 PM 41.0269 -85.6067 138° Southeast 447 514 21,600 2,177 Climbing Chicago Center
Wed 06:15:33 PM 40.9364 -85.4975 138° Southeast 444 511 24,300 2,081 Climbing Chicago Center
Wed 06:16:35 PM 40.8325 -85.3492 133° Southeast 459 528 25,900 1,500 Climbing Chicago Center
Wed 06:17:37 PM 40.7547 -85.2025 125° Southeast 483 556 27,400 1,065 Climbing Chicago Center
Wed 06:18:39 PM 40.6564 -85.1000 142° Southeast 469 540 28,100 1,113 Climbing Chicago Center
Wed 06:19:41 PM 40.5467 -85.0897 176° South 427 491 29,700 1,355 Climbing Chicago Center
Wed 06:20:43 PM 40.4053 -85.0706 174° South 425 489 30,900 1,200 Climbing Chicago Center
Wed 06:21:46 PM 40.2886 -85.0556 174° South 421 484 32,200 960 Climbing Chicago Center
Wed 06:22:48 PM 40.1728 -85.0406 174° South 417 480 32,900 387 Climbing Chicago Center
Wed 06:23:50 PM 40.0564 -85.0253 174° South 418 481 33,000 48 Climbing Chicago Center
Wed 06:24:52 PM 39.9394 -85.0089 174° South 421 484 33,000  Level Chicago Center
Wed 06:25:54 PM 39.8222 -84.9944 175° South 422 486 33,000  Level Chicago Center
Wed 06:26:56 PM 39.6822 -84.9764 174° South 421 484 33,000  Level Chicago Center
Wed 06:27:58 PM 39.5658 -84.9622 175° South 420 483 33,000  Level Chicago Center
Wed 06:29:20 PM 39.4028 -84.9419 175° South 420 483 33,000  Level Indianapolis Center
Wed 06:30:22 PM 39.2853 -84.9264 174° South 420 483 33,000  Level Indianapolis Center
Wed 06:31:24 PM 39.1692 -84.9106 174° South 420 483 33,000  Level Indianapolis Center
Wed 06:32:26 PM 39.0542 -84.8967 175° South 418 481 33,000  Level Indianapolis Center
Wed 06:34:30 PM 38.8278 -84.8686 174° South 410 472 33,000  Level Indianapolis Center
Wed 06:35:33 PM 38.7147 -84.8558 175° South 410 472 33,000  Level Indianapolis Center
Wed 06:36:35 PM 38.5825 -84.8386 174° South 409 471 33,000  Level Indianapolis Center
Wed 06:37:37 PM 38.4686 -84.8244 174° South 408 470 33,000  Level Indianapolis Center
Wed 06:38:39 PM 38.3550 -84.8117 175° South 408 470 33,000  Level Indianapolis Center
Wed 06:39:41 PM 38.2394 -84.7972 174° South 411 473 33,000  Level Indianapolis Center
Wed 06:40:43 PM 38.1053 -84.7814 175° South 411 473 33,000  Level Indianapolis Center
Wed 06:41:45 PM 37.9908 -84.7678 175° South 412 474 33,000  Level Indianapolis Center
Wed 06:42:47 PM 37.8750 -84.7542 175° South 412 474 33,000  Level Indianapolis Center
Wed 06:43:49 PM 37.7597 -84.7408 175° South 413 475 33,000  Level Indianapolis Center
Wed 06:44:51 PM 37.6442 -84.7272 175° South 413 475 33,000  Level Indianapolis Center
Wed 06:45:53 PM 37.5086 -84.7125 175° South 414 476 33,000  Level Indianapolis Center
Wed 06:46:55 PM 37.3942 -84.6981 174° South 414 476 33,000  Level Indianapolis Center
Wed 06:47:58 PM 37.2781 -84.6844 175° South 414 476 33,000  Level Indianapolis Center
Wed 06:49:00 PM 37.1619 -84.6714 175° South 417 480 33,000  Level Indianapolis Center
Wed 06:50:02 PM 37.0456 -84.6578 175° South 417 480 33,000  Level Indianapolis Center
Wed 06:51:04 PM 36.9083 -84.6425 175° South 421 484 33,000  Level Indianapolis Center
Wed 06:52:06 PM 36.7900 -84.6281 174° South 422 486 33,000  Level Indianapolis Center
Wed 06:53:08 PM 36.6722 -84.6150 175° South 422 486 33,000  Level Indianapolis Center
Wed 06:54:10 PM 36.5533 -84.6003 174° South 423 487 33,000  Level Indianapolis Center
Wed 06:55:12 PM 36.4339 -84.5867 175° South 425 489 33,000  Level Indianapolis Center
Wed 06:56:14 PM 36.3139 -84.5736 175° South 429 494 33,000  Level Indianapolis Center
Wed 06:57:16 PM 36.1933 -84.5589 174° South 429 494 33,000  Level Indianapolis Center
Wed 06:58:18 PM 36.0500 -84.5422 175° South 429 494 33,000  Level Indianapolis Center
Wed 06:59:10 PM 35.9489 -84.5339 176° South 434 499 33,000  Level Atlanta Center
Wed 07:00:10 PM 35.8300 -84.5203 175° South 434 499 33,000  Level Atlanta Center
Wed 07:01:10 PM 35.7111 -84.5067 175° South 434 499 33,000  Level Atlanta Center
Wed 07:02:10 PM 35.5881 -84.4958 176° South 434 499 33,000  Level Atlanta Center
Wed 07:03:10 PM 35.4692 -84.4825 175° South 434 499 33,000  Level Atlanta Center
Wed 07:04:10 PM 35.3461 -84.4692 175° South 440 506 33,000  Level Atlanta Center
Wed 07:05:10 PM 35.2272 -84.4583 176° South 440 506 33,000  Level Atlanta Center
Wed 07:06:10 PM 35.1064 -84.4450 175° South 440 506 33,000  Level Atlanta Center
Wed 07:07:10 PM 34.9833 -84.4317 175° South 440 506 33,000  Level Atlanta Center
Wed 07:08:10 PM 34.8644 -84.4133 173° South 440 506 33,000  Level Atlanta Center
Wed 07:09:10 PM 34.7433 -84.4053 177° South 440 506 33,000  Level Atlanta Center
Wed 07:10:10 PM 34.6222 -84.3922 175° South 435 501 33,000  Level Atlanta Center
Wed 07:11:10 PM 34.5014 -84.3767 174° South 435 501 33,000  Level Atlanta Center
Wed 07:12:10 PM 34.3803 -84.3661 176° South 441 507 33,000  Level Atlanta Center
Wed 07:13:10 PM 34.2614 -84.3531 175° South 441 507 33,000  Level Atlanta Center
Wed 07:14:10 PM 34.1425 -84.3400 175° South 441 507 33,000  Level Atlanta Center
Wed 07:15:10 PM 34.0278 -84.3319 177° South 447 514 33,000  Level Atlanta Center
Wed 07:16:10 PM 33.9128 -84.3192 175° South 436 502 33,000  Level Atlanta Center
Wed 07:17:10 PM 33.7878 -84.3061 175° South 436 502 33,000  Level Atlanta Center
Wed 07:18:10 PM 33.6689 -84.2933 175° South 441 507 33,000  Level Atlanta Center
Wed 07:19:10 PM 33.5372 -84.2806 175° South 447 514 33,000  Level Atlanta Center
Wed 07:20:10 PM 33.4142 -84.2678 175° South 441 507 33,000  Level Atlanta Center
Wed 07:21:10 PM 33.2972 -84.2550 175° South 441 507 33,000  Level Atlanta Center
Wed 07:22:10 PM 33.1761 -84.2422 175° South 441 507 33,000  Level Atlanta Center
Wed 07:23:10 PM 33.0553 -84.2322 176° South 441 507 33,000  Level Atlanta Center
Wed 07:24:10 PM 32.9342 -84.2144 173° South 441 507 33,000  Level Atlanta Center
Wed 07:25:10 PM 32.8278 -84.2044 175° South 441 507 33,000  Level Atlanta Center
Wed 07:26:10 PM 32.6919 -84.1894 175° South 441 507 33,000  Level Atlanta Center
Wed 07:27:10 PM 32.5711 -84.1769 175° South 441 507 33,000  Level Atlanta Center
Wed 07:28:10 PM 32.4500 -84.1644 175° South 441 507 33,000  Level Atlanta Center
Wed 07:29:10 PM 32.3289 -84.1519 175° South 441 507 33,000  Level Atlanta Center
Wed 07:30:10 PM 32.2058 -84.1394 175° South 441 507 33,000  Level Atlanta Center
Wed 07:31:10 PM 32.0825 -84.1272 175° South 441 507 33,000  Level Atlanta Center
Wed 07:32:10 PM 31.9636 -84.1147 175° South 441 507 33,000  Level Atlanta Center
Wed 07:34:15 PM 31.7183 -84.0892 175° South 463 533 33,000  Level Jacksonville Center
Wed 07:35:15 PM 31.5953 -84.0731 174° South 456 525 33,000  Level Jacksonville Center
Wed 07:36:14 PM 31.4742 -84.0619 176° South 451 519 33,000  Level Jacksonville Center
Wed 07:37:15 PM 31.3533 -84.0481 174° South 446 513 33,000  Level Jacksonville Center
Wed 07:38:15 PM 31.2281 -84.0369 176° South 441 507 33,000  Level Jacksonville Center
Wed 07:39:14 PM 31.1050 -84.0233 175° South 441 507 33,000  Level Jacksonville Center
Wed 07:40:15 PM 30.9819 -84.0097 175° South 441 507 33,000  Level Jacksonville Center
Wed 07:41:15 PM 30.8567 -83.9961 175° South 441 507 33,000  Level Jacksonville Center
Wed 07:42:14 PM 30.7336 -83.9850 176° South 441 507 33,000  Level Jacksonville Center
Wed 07:43:15 PM 30.6106 -83.9714 175° South 441 507 33,000 -50 Level Jacksonville Center
Wed 07:44:15 PM 30.4814 -83.9581 175° South 441 507 32,900 -50 Descending Jacksonville Center
Wed 07:45:15 PM 30.3519 -83.9372 172° South 447 514 32,900  Level Jacksonville Center
Wed 07:46:15 PM 30.2292 -83.8878 161° South 452 520 32,900  Level Jacksonville Center
Wed 07:47:15 PM 30.1044 -83.8408 162° South 463 533 32,900  Level Jacksonville Center
Wed 07:48:15 PM 29.9794 -83.7942 162° South 468 539 32,900  Level Jacksonville Center
Wed 07:49:15 PM 29.8525 -83.7450 161° South 473 544 32,900  Level Jacksonville Center
Wed 07:50:15 PM 29.7294 -83.6986 162° South 473 544 32,900  Level Jacksonville Center
Wed 07:51:15 PM 29.6025 -83.6497 161° South 473 544 32,900 -750 Level Jacksonville Center
Wed 07:52:15 PM 29.4775 -83.6058 163° South 478 550 31,400 -1,750 Descending Jacksonville Center
Wed 07:53:15 PM 29.3608 -83.5597 161° South 473 544 29,400 -2,000 Descending Jacksonville Center
Wed 07:54:15 PM 29.2419 -83.5161 162° South 455 524 27,400 -1,200 Descending Jacksonville Center
Wed 07:55:15 PM 29.1358 -83.4561 154° Southeast 444 511 27,000 -250 Descending Jacksonville Center
Wed 07:56:15 PM 29.0339 -83.3867 149° Southeast 433 498 26,900 -1,250 Descending Jacksonville Center
Wed 07:57:15 PM 28.9236 -83.3172 151° Southeast 439 505 24,500 -2,650 Descending Jacksonville Center
Wed 07:58:15 PM 28.8214 -83.2528 151° Southeast 456 525 21,600 -2,700 Descending Jacksonville Center
Wed 07:59:15 PM 28.7150 -83.1861 151° Southeast 456 525 19,100 -2,375 Descending Jacksonville Center
Wed 08:00:39 PM 28.5667 -83.1000 153° Southeast 406 467 15,900 -2,208 Descending Tampa TRACON
Wed 08:01:39 PM 28.4667 -83.0333 150° Southeast 386 444 13,800 -1,750 Descending Tampa TRACON
Wed 08:02:39 PM 28.3833 -82.9833 152° Southeast 359 413 12,400 -1,550 Descending Tampa TRACON
Wed 08:03:39 PM 28.3000 -82.9500 161° South 316 364 10,700 -1,200 Descending Tampa TRACON
Wed 08:04:39 PM 28.2167 -82.9333 170° South 308 354 10,000 -950 Descending Tampa TRACON
Wed 08:05:39 PM 28.1333 -82.9333 180° South 278 320 8,800 -1,400 Descending Tampa TRACON
Wed 08:06:39 PM 28.0500 -82.9333 180° South 280 322 7,200 -1,524 Descending Tampa TRACON
Wed 08:07:45 PM 27.9667 -82.9167 170° South 274 315 5,600 -1,048 Descending Tampa TRACON
Wed 08:08:45 PM 27.9000 -82.9167 180° South 236 272 5,000 -750 Descending Tampa TRACON
Wed 08:09:45 PM 27.8333 -82.9000 168° South 206 237 4,100 -500 Descending Tampa TRACON
Wed 08:10:45 PM 27.7833 -82.8833 164° South 188 216 4,000 -211 Descending Tampa TRACON
Wed 08:11:39 PM 27.7667 -82.8500 119° Southeast 177 204 3,700 -789 Descending Tampa TRACON
Wed 08:12:39 PM 27.7500 -82.8000 111° Southeast 180 207 2,500 -843 Descending Tampa TRACON
Wed 08:13:40 PM 27.7667 -82.7500 69° East 173 199 2,000 -446 Descending Tampa TRACON
Wed 08:14:40 PM 27.8000 -82.7000 53° Northeast 179 206 1,600 -350 Descending Tampa TRACON
Wed 08:15:40 PM 27.8333 -82.6833 24° Northeast 170 196 1,300 -550 Descending Tampa TRACON
Wed 08:16:40 PM 27.8833 -82.6833 360° North 128 147 500 -800 Descending Tampa TRACON
Wed 08:18:00 PM 27.9000 -82.6833 24° Northeast  Level FlightAware Approximate

Login

Don't have an account? Register now (free) for customized features, flight alerts, and more!